Time;durP1;ratioP1;P1;durP2;ratioP2;P2;SDS_P1;SDS_P2;PMS_P1;PMS_P2;Temp;Humidity;BMP_temperature;BMP_pressure;BME280_temperature;BME280_humidity;BME280_pressure;Samples;Min_cycle;Max_cycle;Signal;HPM_P1;HPM_P2
2021/01/28 00:02:01;;;;;;;8.90;5.53;;;4.70;79.90;;;3.48;75.43;98128.50;5085101;28;20473;-79
2021/01/28 00:04:28;;;;;;;8.82;6.40;;;4.70;79.70;;;3.44;75.72;98137.75;5081354;28;20725;-79
2021/01/28 00:06:54;;;;;;;9.00;5.17;;;4.60;79.90;;;3.47;75.62;98127.69;5080014;28;20403;-79
2021/01/28 00:09:20;;;;;;;6.43;5.18;;;4.60;79.80;;;3.51;75.54;98128.16;5080295;28;20427;-79
2021/01/28 00:11:47;;;;;;;6.85;5.10;;;4.70;80.00;;;3.63;75.25;98139.72;5078948;28;20407;-78
2021/01/28 00:14:13;;;;;;;6.95;5.25;;;4.70;79.70;;;3.75;74.31;98134.81;5079538;28;20408;-78
2021/01/28 00:16:39;;;;;;;7.22;5.05;;;4.90;79.10;;;3.71;74.59;98129.13;5079673;28;20475;-79
2021/01/28 00:19:05;;;;;;;5.35;4.60;;;4.80;79.00;;;3.64;74.94;98114.34;5079075;28;20404;-78
2021/01/28 00:21:32;;;;;;;6.40;5.00;;;4.80;79.20;;;3.62;75.08;98118.97;5081083;28;20419;-81
2021/01/28 00:23:58;;;;;;;7.35;5.45;;;4.70;79.40;;;3.57;75.28;98124.78;5080590;28;20430;-78
2021/01/28 00:26:24;;;;;;;7.40;5.10;;;4.80;79.40;;;3.54;75.27;98119.91;5079392;28;20487;-78
2021/01/28 00:28:51;;;;;;;7.18;4.88;;;4.70;79.50;;;3.61;75.20;98118.16;5082187;28;20415;-79
2021/01/28 00:31:17;;;;;;;6.35;5.20;;;4.70;79.70;;;3.62;75.18;98124.19;5083385;28;20715;-78
2021/01/28 00:33:43;;;;;;;6.28;5.13;;;4.70;79.50;;;3.64;75.09;98109.13;5068922;28;20545;-78
2021/01/28 00:36:10;;;;;;;5.83;4.60;;;4.80;79.40;;;3.91;73.53;98107.53;5091859;28;20453;-79
2021/01/28 00:38:38;;;;;;;6.28;4.80;;;4.90;78.70;;;3.73;74.13;98114.03;5076481;28;20486;-78
2021/01/28 00:41:09;;;;;;;6.25;4.85;;;4.90;78.20;;;3.65;74.63;98115.97;5096769;28;20472;-78
2021/01/28 00:43:35;;;;;;;6.63;5.13;;;4.80;78.70;;;3.61;74.97;98110.31;5094158;28;20473;-78
2021/01/28 00:46:02;;;;;;;5.70;4.88;;;4.70;79.30;;;3.56;75.32;98099.59;5089486;28;20414;-77
2021/01/28 00:48:29;;;;;;;5.82;4.57;;;4.80;79.50;;;3.76;74.42;98103.16;5085035;28;20403;-80
2021/01/28 00:51:01;;;;;;;6.70;4.88;;;4.80;79.30;;;3.67;74.51;98098.28;5084438;28;20422;-79
2021/01/28 00:53:28;;;;;;;7.63;4.83;;;4.80;78.70;;;3.87;73.82;98094.81;5083848;28;20405;-79
2021/01/28 00:56:03;;;;;;;5.80;4.40;;;4.90;78.90;;;3.97;73.18;98076.16;5085081;28;20403;-79
2021/01/28 00:58:29;;;;;;;5.15;4.25;;;5.10;78.00;;;3.89;73.59;98092.00;5083378;28;20911;-79
2021/01/28 01:01:00;;;;;;;5.70;4.43;;;5.10;77.80;;;3.83;74.16;98092.78;5083542;28;20411;-80
2021/01/28 01:03:28;;;;;;;4.80;4.18;;;5.00;78.30;;;3.87;73.68;98083.53;5085279;28;20415;-79
2021/01/28 01:05:56;;;;;;;5.70;5.00;;;5.00;78.40;;;3.74;73.87;98078.19;5087514;28;20439;-79
2021/01/28 01:08:25;;;;;;;6.30;4.55;;;4.90;78.20;;;3.90;73.85;98075.28;5091000;28;20412;-79
2021/01/28 01:10:53;;;;;;;5.63;4.07;;;4.90;78.60;;;3.86;73.49;98069.63;5090464;28;20403;-80
2021/01/28 01:13:23;;;;;;;4.93;4.20;;;5.00;78.10;;;3.84;73.84;98068.19;5090849;28;20460;-79
2021/01/28 01:15:49;;;;;;;8.27;4.40;;;5.00;78.10;;;3.74;73.88;98059.88;5073266;28;20530;-80
2021/01/28 01:18:22;;;;;;;6.25;4.15;;;4.90;78.10;;;3.96;72.79;98066.66;5090226;28;20428;-79
2021/01/28 01:20:49;;;;;;;6.05;3.85;;;5.00;77.60;;;3.77;73.20;98069.94;5090298;28;20448;-78
2021/01/28 01:23:16;;;;;;;4.80;4.03;;;4.90;77.50;;;3.78;73.19;98061.91;5072292;28;20423;-79
2021/01/28 01:25:42;;;;;;;5.18;4.32;;;4.90;77.80;;;3.70;73.50;98061.22;5094836;28;20403;-78
2021/01/28 01:28:10;;;;;;;5.22;4.45;;;4.90;78.00;;;3.63;74.24;98066.44;5096109;28;20438;-80
2021/01/28 01:30:42;;;;;;;5.57;4.38;;;4.80;78.50;;;3.62;74.04;98070.03;5092148;28;20431;-79
2021/01/28 01:33:08;;;;;;;5.20;4.38;;;4.80;79.30;;;3.59;74.34;98074.88;5089334;28;20411;-77
2021/01/28 01:35:35;;;;;;;5.07;4.22;;;4.70;78.60;;;3.68;74.01;98058.84;5074371;28;20809;-78
2021/01/28 01:38:03;;;;;;;4.70;4.20;;;4.80;78.60;;;3.68;73.67;98058.84;5090512;28;20412;-78
2021/01/28 01:40:36;;;;;;;5.65;4.50;;;4.80;78.40;;;3.77;73.73;98060.28;5089578;28;20412;-78
2021/01/28 01:43:04;;;;;;;5.57;4.27;;;4.80;78.40;;;3.76;73.79;98052.66;5090374;28;20423;-79
2021/01/28 01:45:34;;;;;;;5.70;4.40;;;4.90;78.30;;;3.74;73.57;98044.97;5088664;28;20400;-78
2021/01/28 01:48:07;;;;;;;5.18;4.13;;;4.90;78.20;;;3.70;73.88;98046.34;5088186;28;20416;-78
2021/01/28 01:50:46;;;;;;;4.47;3.80;;;4.80;78.20;;;3.80;73.39;98033.72;5088002;28;20419;-79
2021/01/28 01:53:20;;;;;;;4.82;3.97;;;4.90;78.20;;;3.76;73.63;98035.09;5071143;28;20515;-78
2021/01/28 01:55:53;;;;;;;5.53;4.00;;;4.90;78.20;;;3.68;74.11;98026.59;5071585;28;20473;-77
2021/01/28 01:58:39;;;;;;;6.32;4.13;;;4.80;78.30;;;3.73;73.60;98025.03;5090100;28;20462;-79
2021/01/28 02:01:05;;;;;;;5.97;3.95;;;4.80;78.30;;;3.68;73.98;98010.91;5090090;28;20415;-77
2021/01/28 02:03:35;;;;;;;5.93;4.38;;;4.90;78.30;;;3.71;73.70;98005.25;5090426;28;20426;-79
2021/01/28 02:06:13;;;;;;;4.20;3.80;;;4.80;78.30;;;3.81;73.53;98000.50;5068008;28;20421;-79
2021/01/28 02:08:40;;;;;;;4.65;3.88;;;4.90;78.30;;;3.75;73.83;98003.88;5070018;28;20454;-79
2021/01/28 02:11:09;;;;;;;5.32;4.18;;;4.90;78.20;;;3.74;73.69;97991.78;5084207;28;20800;-79
2021/01/28 02:13:35;;;;;;;4.70;4.20;;;4.90;78.20;;;3.71;74.00;97989.56;5083487;28;20415;-79
2021/01/28 02:16:03;;;;;;;4.63;4.10;;;4.90;78.50;;;3.68;74.16;97985.53;5065920;28;20806;-79
2021/01/28 02:18:31;;;;;;;5.40;4.03;;;4.90;78.40;;;3.75;73.89;97985.56;5082993;28;20403;-79
2021/01/28 02:21:20;;;;;;;4.80;3.85;;;4.90;78.30;;;3.82;73.59;97983.78;5082770;28;20411;-78
2021/01/28 02:24:19;;;;;;;3.97;3.55;;;4.90;78.20;;;3.81;73.67;97971.69;5083024;28;20805;-78
2021/01/28 02:26:48;;;;;;;4.00;3.63;;;5.00;78.00;;;3.81;73.62;97985.59;5071215;28;20424;-78
2021/01/28 02:29:16;;;;;;;4.53;3.35;;;5.00;78.20;;;3.83;73.53;97974.94;5080706;28;20435;-78
2021/01/28 02:31:48;;;;;;;4.47;3.55;;;4.90;79.00;;;3.90;73.36;97965.31;5080315;28;20422;-78
2021/01/28 02:34:14;;;;;;;4.28;3.63;;;5.00;78.00;;;3.88;73.53;97959.44;5081880;28;20693;-80
2021/01/28 02:36:46;;;;;;;5.53;3.25;;;5.00;77.90;;;3.93;73.30;97946.56;5064095;28;20765;-79
2021/01/28 02:39:17;;;;;;;4.00;3.47;;;5.00;78.70;;;3.93;73.33;97946.56;5082347;28;20461;-79
2021/01/28 02:41:52;;;;;;;4.15;3.47;;;5.00;77.90;;;4.00;73.54;97947.41;5065766;28;20518;-79
2021/01/28 02:44:18;;;;;;;3.53;3.22;;;5.10;78.00;;;3.91;73.59;97938.09;5080269;28;20412;-79
2021/01/28 02:46:44;;;;;;;4.20;3.30;;;5.10;78.00;;;3.91;73.79;97932.84;5081455;28;20778;-79
2021/01/28 02:49:10;;;;;;;6.38;4.38;;;5.10;78.20;;;3.94;73.71;97929.84;5081936;28;20415;-79
2021/01/28 02:51:36;;;;;;;4.30;3.10;;;5.10;78.20;;;3.93;73.79;97935.28;5081551;28;20416;-79
2021/01/28 02:54:03;;;;;;;3.97;3.15;;;5.00;78.30;;;3.96;73.92;97935.72;5081663;28;20400;-79
2021/01/28 02:56:29;;;;;;;3.33;3.03;;;5.10;78.30;;;3.94;73.90;97935.09;5066271;28;20530;-79
2021/01/28 02:58:56;;;;;;;3.08;2.78;;;5.00;78.30;;;3.98;73.65;97938.13;5091802;28;20443;-79
2021/01/28 03:01:22;;;;;;;3.23;2.93;;;5.10;78.20;;;4.06;73.76;97932.72;5094633;28;20415;-79
2021/01/28 03:03:49;;;;;;;3.25;2.88;;;5.20;78.30;;;4.03;73.54;97926.06;5089350;28;20426;-77
2021/01/28 03:06:16;;;;;;;3.17;2.88;;;5.10;78.10;;;3.98;73.70;97925.03;5090763;28;20476;-78
2021/01/28 03:08:45;;;;;;;3.10;2.80;;;5.10;78.10;;;3.95;74.22;97912.31;5094877;28;20411;-78
2021/01/28 03:11:12;;;;;;;2.70;2.50;;;5.10;78.00;;;3.93;74.33;97902.03;5090235;28;20400;-78
2021/01/28 03:13:38;;;;;;;2.75;2.55;;;5.10;78.30;;;4.07;73.70;97905.50;5074742;28;20411;-77
2021/01/28 03:16:05;;;;;;;5.82;2.70;;;5.20;78.30;;;4.13;73.49;97900.31;5094282;28;20407;-77
2021/01/28 03:18:31;;;;;;;2.72;2.47;;;5.30;77.90;;;4.12;73.33;97896.06;5093126;28;20435;-77
2021/01/28 03:20:58;;;;;;;3.47;2.80;;;5.30;78.70;;;4.27;72.98;97890.66;5088679;28;20415;-79
2021/01/28 03:23:24;;;;;;;4.38;2.85;;;5.30;77.80;;;4.29;73.01;97888.63;5082887;28;20419;-78
2021/01/28 03:25:50;;;;;;;3.05;2.75;;;5.40;77.60;;;4.28;72.98;97889.66;5081506;28;20813;-78
2021/01/28 03:28:16;;;;;;;3.80;2.78;;;5.40;77.50;;;4.22;73.16;97893.88;5081063;28;20817;-79
2021/01/28 03:30:46;;;;;;;5.07;2.77;;;5.40;77.70;;;4.21;73.20;97884.38;5079888;28;20411;-77
2021/01/28 03:33:18;;;;;;;3.22;2.80;;;5.40;77.80;;;4.30;72.83;97882.38;5079111;28;20428;-78
2021/01/28 03:35:44;;;;;;;3.25;2.95;;;5.40;77.60;;;4.18;73.45;97890.03;5080807;28;20403;-79
2021/01/28 03:38:12;;;;;;;3.17;2.83;;;5.40;77.70;;;4.25;73.42;97884.81;5080754;28;20423;-79
2021/01/28 03:40:39;;;;;;;3.72;3.00;;;5.30;78.10;;;4.15;73.82;97887.81;5079110;28;20485;-78
2021/01/28 03:43:06;;;;;;;3.95;3.00;;;5.30;78.00;;;4.15;73.83;97881.75;5079167;28;20431;-78
2021/01/28 03:45:33;;;;;;;3.50;3.15;;;5.30;78.40;;;4.07;74.04;97874.06;5079276;28;20403;-79
2021/01/28 03:48:01;;;;;;;3.28;2.78;;;5.30;78.30;;;4.09;74.46;97864.22;5079417;28;20502;-79
2021/01/28 03:50:31;;;;;;;4.22;2.95;;;5.20;78.60;;;4.05;74.61;97868.25;5060894;28;20423;-78
2021/01/28 03:52:57;;;;;;;3.55;3.10;;;5.20;78.70;;;4.03;74.63;97847.47;5078715;28;20415;-78
2021/01/28 03:55:23;;;;;;;4.57;2.80;;;5.20;78.80;;;4.05;74.76;97840.25;5079882;28;20399;-79
2021/01/28 03:57:51;;;;;;;3.03;2.70;;;5.20;79.10;;;4.05;75.18;97831.56;5079625;28;20434;-79
2021/01/28 04:00:21;;;;;;;3.95;2.90;;;5.20;79.10;;;4.07;75.45;97834.78;5063749;28;20444;-79
2021/01/28 04:02:47;;;;;;;4.25;2.95;;;5.20;79.50;;;4.10;75.58;97818.69;5080396;28;20436;-78
2021/01/28 04:05:16;;;;;;;5.05;3.65;;;5.30;79.80;;;4.13;75.98;97813.06;5081521;28;20741;-79
2021/01/28 04:07:43;;;;;;;4.13;2.85;;;5.30;80.10;;;4.14;76.01;97820.69;5081385;28;20794;-79
2021/01/28 04:10:13;;;;;;;3.30;2.95;;;5.30;80.30;;;4.19;76.01;97807.00;5064830;28;20411;-79
2021/01/28 04:12:39;;;;;;;3.63;3.10;;;5.30;80.50;;;4.17;76.27;97809.81;5080020;28;20411;-79
2021/01/28 04:15:09;;;;;;;4.53;3.13;;;5.30;80.50;;;4.14;76.21;97810.22;5079491;28;20411;-80
2021/01/28 04:17:36;;;;;;;4.22;3.30;;;5.30;80.50;;;4.16;76.29;97797.72;5080344;28;20423;-79
2021/01/28 04:20:06;;;;;;;4.43;3.63;;;5.30;80.60;;;4.15;76.32;97785.63;5080343;28;20502;-79
2021/01/28 04:22:32;;;;;;;5.07;4.13;;;5.30;80.50;;;4.25;76.07;97772.94;5079655;28;20407;-79
2021/01/28 04:24:59;;;;;;;4.17;3.53;;;5.30;80.50;;;4.17;76.28;97770.53;5080098;28;20482;-79
2021/01/28 04:27:26;;;;;;;7.73;4.40;;;5.30;80.40;;;4.13;75.98;97774.56;5080180;28;20497;-78
2021/01/28 04:29:52;;;;;;;4.83;4.30;;;5.30;80.40;;;4.15;75.92;97751.56;5079851;28;20531;-78
2021/01/28 04:32:18;;;;;;;8.27;4.75;;;5.30;80.50;;;4.19;75.69;97754.59;5078780;28;20542;-78
2021/01/28 04:34:45;;;;;;;7.78;5.25;;;5.30;80.00;;;4.25;75.26;97751.97;5079105;28;20475;-79
2021/01/28 04:37:11;;;;;;;7.78;5.50;;;5.40;79.70;;;4.33;74.87;97744.94;5079164;28;20411;-78
2021/01/28 04:39:41;;;;;;;8.60;5.60;;;5.40;79.60;;;4.19;75.19;97738.88;5078776;28;20404;-78
2021/01/28 04:42:14;;;;;;;7.60;5.75;;;5.40;79.50;;;4.15;75.31;97729.81;5065513;28;20419;-78
2021/01/28 04:44:40;;;;;;;8.52;5.88;;;5.30;79.50;;;4.11;75.20;97728.59;5081867;28;20568;-78
2021/01/28 04:47:12;;;;;;;8.75;6.13;;;5.30;79.50;;;4.09;75.29;97718.31;5088350;28;20431;-78
2021/01/28 04:49:39;;;;;;;8.35;6.38;;;5.30;79.50;;;4.26;74.42;97724.78;5089417;28;20404;-77
2021/01/28 04:52:09;;;;;;;8.30;6.57;;;5.30;79.50;;;4.16;74.71;97724.38;5078336;28;20948;-79
2021/01/28 04:54:37;;;;;;;8.60;6.07;;;5.30;79.20;;;4.09;75.00;97722.75;5078982;28;20431;-79
2021/01/28 04:57:09;;;;;;;8.57;6.47;;;5.30;79.30;;;4.02;75.25;97720.13;5078603;28;20412;-78
2021/01/28 04:59:42;;;;;;;7.28;6.03;;;5.20;79.40;;;4.12;74.93;97717.94;5078523;28;20417;-78
2021/01/28 05:02:15;;;;;;;7.55;6.07;;;5.30;79.40;;;4.11;74.89;97707.66;5077097;28;20416;-78
2021/01/28 05:04:47;;;;;;;8.40;5.95;;;5.30;79.20;;;4.10;74.91;97706.84;5079488;28;20419;-78
2021/01/28 05:07:21;;;;;;;8.95;6.07;;;5.30;79.20;;;4.10;74.62;97698.19;5083734;28;20438;-78
2021/01/28 05:10:09;;;;;;;8.52;6.22;;;5.30;79.10;;;4.12;74.53;97685.69;5085658;28;20542;-78
2021/01/28 05:12:36;;;;;;;8.55;6.07;;;5.30;78.90;;;4.12;74.64;97677.84;5080877;28;20781;-78
2021/01/28 05:15:19;;;;;;;8.98;6.20;;;5.30;78.90;;;4.09;74.79;97675.59;5079139;28;20403;-78
2021/01/28 05:17:57;;;;;;;7.47;5.95;;;5.30;78.90;;;4.10;74.47;97670.16;5080772;28;20411;-79
2021/01/28 05:20:26;;;;;;;10.63;6.43;;;5.30;78.80;;;4.17;74.36;97660.50;5079791;28;20465;-78
2021/01/28 05:23:02;;;;;;;9.05;6.18;;;5.30;78.70;;;4.19;73.95;97665.53;5080030;28;20428;-80
2021/01/28 05:25:36;;;;;;;9.15;6.28;;;5.30;78.40;;;4.19;74.06;97666.34;5090558;28;20388;-80
2021/01/28 05:28:29;;;;;;;8.48;6.07;;;5.30;78.50;;;4.15;73.90;97659.06;5097983;28;20404;-79
2021/01/28 05:30:57;;;;;;;9.43;6.90;;;5.30;78.40;;;4.31;73.35;97647.34;5079364;28;20408;-80
2021/01/28 05:33:34;;;;;;;9.10;6.30;;;5.30;78.10;;;4.27;73.31;97633.88;5086711;28;20479;-79
2021/01/28 05:36:05;;;;;;;9.02;6.25;;;5.40;78.00;;;4.26;73.33;97638.31;5065118;28;20754;-79
2021/01/28 05:38:37;;;;;;;8.32;6.53;;;5.40;77.80;;;4.23;73.57;97638.69;5082937;28;20411;-79
2021/01/28 05:41:04;;;;;;;9.05;6.30;;;5.40;78.00;;;4.24;73.64;97634.28;5065861;28;20415;-80
2021/01/28 05:43:35;;;;;;;7.83;6.30;;;5.40;78.10;;;4.19;73.81;97629.66;5084173;28;20856;-80
2021/01/28 05:46:18;;;;;;;9.43;6.53;;;5.40;78.10;;;4.18;74.14;97629.84;5082896;28;20396;-79
2021/01/28 05:48:46;;;;;;;7.88;6.10;;;5.30;78.30;;;4.15;73.80;97614.53;5065536;28;20829;-79
2021/01/28 05:51:18;;;;;;;9.55;7.28;;;5.30;78.30;;;4.13;74.29;97616.56;5082045;28;20415;-80
2021/01/28 05:54:00;;;;;;;9.32;6.72;;;5.30;78.50;;;4.17;74.33;97605.47;5082036;28;20411;-79
2021/01/28 05:56:30;;;;;;;8.83;6.13;;;5.30;78.70;;;4.17;74.04;97605.47;5081594;28;20463;-80
2021/01/28 05:59:06;;;;;;;8.82;6.20;;;5.30;78.40;;;4.16;74.14;97601.22;5082889;28;20404;-80
2021/01/28 06:01:57;;;;;;;8.02;6.32;;;5.30;78.70;;;4.19;74.38;97592.16;5066198;28;20497;-80
2021/01/28 06:05:00;;;;;;;8.63;6.32;;;5.30;78.80;;;4.20;74.82;97583.31;5095293;28;20428;-78
2021/01/28 06:08:15;;;;;;;8.70;5.60;;;5.40;79.00;;;4.27;74.55;97581.47;5093067;28;20530;-80
2021/01/28 06:11:06;;;;;;;8.50;6.53;;;5.40;79.10;;;4.32;74.25;97573.78;5085550;28;20493;-80
2021/01/28 06:14:19;;;;;;;7.60;5.37;;;5.50;78.80;;;4.25;74.80;97565.94;5085664;28;20420;-79
2021/01/28 06:16:59;;;;;;;8.15;5.78;;;5.40;78.90;;;4.31;74.86;97559.06;5059808;28;20419;-80
2021/01/28 06:19:56;;;;;;;8.70;5.35;;;5.40;79.30;;;4.34;74.61;97544.75;5085486;28;20749;-78
2021/01/28 06:22:38;;;;;;;8.20;5.38;;;5.40;79.30;;;4.24;74.92;97546.00;5087639;28;20423;-81
2021/01/28 06:25:47;;;;;;;12.50;8.57;;;5.50;79.20;;;4.32;75.38;97544.16;5087630;28;20388;-81
2021/01/28 06:28:32;;;;;;;10.18;6.55;;;5.50;79.60;;;4.28;75.35;97536.69;5083875;28;20420;-81
2021/01/28 06:31:15;;;;;;;8.20;5.40;;;5.50;79.60;;;4.25;75.72;97531.09;5082945;28;20504;-79
2021/01/28 06:34:06;;;;;;;7.72;5.45;;;5.40;79.90;;;4.28;75.85;97522.81;5080340;28;20404;-79
2021/01/28 06:37:16;;;;;;;6.95;5.18;;;5.40;80.10;;;4.45;75.44;97523.13;5078599;28;20497;-78
2021/01/28 06:39:46;;;;;;;7.88;4.88;;;5.50;80.60;;;4.30;76.16;97520.78;5062855;28;20477;-80
2021/01/28 06:42:23;;;;;;;6.10;4.47;;;5.50;80.20;;;4.27;76.31;97521.22;5086089;28;20427;-78
2021/01/28 06:44:59;;;;;;;8.10;4.57;;;5.50;80.60;;;4.35;76.47;97518.34;5082405;28;20750;-78
2021/01/28 06:47:34;;;;;;;6.63;5.07;;;5.50;80.80;;;4.32;76.69;97507.47;5080519;28;20411;-78
2021/01/28 06:50:10;;;;;;;7.50;4.82;;;5.50;81.00;;;4.36;76.78;97506.06;5081804;28;20750;-78
2021/01/28 06:52:55;;;;;;;6.73;4.93;;;5.50;81.00;;;4.38;76.78;97496.97;5081636;28;20504;-79
2021/01/28 06:55:35;;;;;;;8.45;4.85;;;5.50;81.20;;;4.38;76.72;97499.56;5063202;28;20798;-82
2021/01/28 06:58:21;;;;;;;6.80;4.70;;;5.50;81.00;;;4.47;76.72;97487.03;5064133;28;20499;-78
2021/01/28 07:00:56;;;;;;;5.70;4.65;;;5.60;81.20;;;4.54;76.30;97493.84;5080225;28;20403;-77
2021/01/28 07:03:35;;;;;;;8.73;5.07;;;5.60;81.10;;;4.55;76.41;97477.13;5079872;28;20416;-78
2021/01/28 07:06:10;;;;;;;9.23;5.47;;;5.70;80.80;;;4.47;76.66;97479.19;5079861;28;20403;-78
2021/01/28 07:09:19;;;;;;;7.53;4.97;;;5.70;80.90;;;4.56;76.71;97486.59;5082725;28;20423;-80
2021/01/28 07:11:46;;;;;;;7.53;5.05;;;5.60;81.10;;;4.47;76.92;97481.78;5062890;28;20452;-79
2021/01/28 07:14:16;;;;;;;9.35;5.18;;;5.60;81.10;;;4.48;76.80;97481.59;5083421;28;20404;-78
2021/01/28 07:16:54;;;;;;;7.90;4.95;;;5.60;81.20;;;4.51;77.11;97481.16;5084302;28;20774;-78
2021/01/28 07:19:25;;;;;;;7.43;4.78;;;5.60;81.40;;;4.49;76.91;97471.91;5084383;28;20407;-78
2021/01/28 07:21:53;;;;;;;7.88;5.38;;;5.60;81.50;;;4.48;76.94;97465.06;5090347;28;20809;-78
2021/01/28 07:24:34;;;;;;;8.70;4.80;;;5.60;81.30;;;4.43;77.06;97467.53;5066387;28;20449;-80
2021/01/28 07:27:05;;;;;;;8.75;5.55;;;5.60;81.40;;;4.48;77.29;97452.75;5090816;28;20408;-79
2021/01/28 07:29:57;;;;;;;7.28;4.70;;;5.60;81.50;;;4.47;77.33;97450.34;5089302;28;20399;-80
2021/01/28 07:32:51;;;;;;;10.43;6.00;;;5.60;81.50;;;4.50;77.50;97448.13;5072016;28;20401;-79
2021/01/28 07:35:50;;;;;;;6.82;4.95;;;5.60;81.70;;;4.56;77.21;97436.78;5072854;28;20398;-80
2021/01/28 07:38:52;;;;;;;7.82;4.85;;;5.70;81.90;;;4.50;77.33;97427.16;5052956;28;20519;-78
2021/01/28 07:41:54;;;;;;;8.63;5.10;;;5.70;81.70;;;4.51;77.46;97427.97;5071664;28;20417;-80
2021/01/28 07:44:47;;;;;;;6.10;4.50;;;5.60;81.90;;;4.54;77.32;97427.53;5065568;28;20435;-78
2021/01/28 07:47:59;;;;;;;8.23;5.28;;;5.60;82.00;;;4.48;77.72;97418.69;5062201;28;20456;-79
2021/01/28 07:50:41;;;;;;;11.27;5.50;;;5.60;82.10;;;4.52;77.94;97409.38;5062010;28;20407;-79
2021/01/28 07:53:38;;;;;;;5.82;4.75;;;5.60;82.30;;;4.51;78.01;97407.00;5044134;28;20429;-79
2021/01/28 07:56:29;;;;;;;6.07;4.60;;;5.60;82.20;;;4.45;78.34;97402.56;5062804;28;20440;-79
2021/01/28 07:58:55;;;;;;;6.63;5.05;;;5.60;82.50;;;4.51;78.23;97407.00;5060658;28;20462;-79
2021/01/28 08:01:22;;;;;;;10.55;5.35;;;5.70;82.70;;;4.54;78.29;97401.31;5063764;28;20417;-79
2021/01/28 08:04:07;;;;;;;7.15;4.90;;;5.70;82.70;;;4.51;78.30;97391.25;5069271;28;20466;-78
2021/01/28 08:06:37;;;;;;;8.30;4.70;;;5.70;82.70;;;4.52;78.33;97384.97;5071629;28;20471;-78
2021/01/28 08:09:06;;;;;;;8.73;4.97;;;5.60;83.30;;;4.56;78.24;97384.38;5050850;28;20417;-78
2021/01/28 08:11:33;;;;;;;6.70;4.75;;;5.70;82.60;;;4.61;78.25;97374.03;5066603;28;20428;-80
2021/01/28 08:13:59;;;;;;;8.93;4.60;;;5.80;82.60;;;4.65;78.17;97369.19;5072087;28;20401;-79
2021/01/28 08:16:26;;;;;;;4.80;4.07;;;5.80;82.60;;;4.73;78.01;97363.66;5072867;28;20405;-78
2021/01/28 08:19:05;;;;;;;6.82;4.43;;;5.80;82.50;;;4.68;78.02;97361.66;5072347;28;20467;-78
2021/01/28 08:21:33;;;;;;;6.70;3.85;;;5.80;82.30;;;4.67;78.14;97349.56;5070097;28;20417;-78
2021/01/28 08:24:16;;;;;;;5.37;3.60;;;5.80;82.50;;;4.67;77.85;97341.72;5069253;28;20471;-77
2021/01/28 08:26:43;;;;;;;6.10;4.03;;;5.80;82.30;;;4.72;78.11;97333.22;5068583;28;20520;-76
2021/01/28 08:29:15;;;;;;;6.60;3.75;;;5.80;82.50;;;4.83;77.71;97339.56;5058359;28;20417;-77
2021/01/28 08:31:45;;;;;;;8.27;3.72;;;5.90;82.40;;;4.82;77.96;97335.34;5059871;28;20773;-77
2021/01/28 08:34:18;;;;;;;5.07;3.50;;;5.90;82.30;;;4.82;77.97;97322.22;5057612;28;20405;-79
2021/01/28 08:36:49;;;;;;;4.63;3.33;;;5.90;82.40;;;4.82;78.10;97322.22;5056453;28;20413;-77
2021/01/28 08:39:21;;;;;;;3.80;2.90;;;5.90;82.30;;;4.88;77.74;97316.13;5055044;28;20405;-77
2021/01/28 08:42:01;;;;;;;3.22;2.85;;;6.00;82.30;;;4.91;77.78;97303.38;5055087;28;20724;-77
2021/01/28 08:44:28;;;;;;;3.90;2.87;;;6.00;82.30;;;4.95;77.78;97296.69;5053912;28;20471;-76
2021/01/28 08:47:09;;;;;;;3.70;2.80;;;6.10;82.50;;;4.97;77.81;97286.75;5054371;28;20413;-76
2021/01/28 08:49:36;;;;;;;4.28;3.03;;;6.10;82.30;;;5.03;77.68;97282.50;5055743;28;20498;-76
2021/01/28 08:52:06;;;;;;;3.10;2.60;;;6.10;82.20;;;5.01;77.81;97277.47;5055512;28;20819;-77
2021/01/28 08:54:36;;;;;;;4.82;2.63;;;6.10;82.30;;;5.01;77.90;97264.34;5056160;28;20800;-77
2021/01/28 08:57:04;;;;;;;3.87;2.60;;;6.10;82.30;;;5.07;77.75;97266.09;5041922;28;20439;-77
2021/01/28 08:59:38;;;;;;;3.40;2.65;;;6.10;82.50;;;5.04;77.89;97256.03;5079766;28;20411;-77
2021/01/28 09:02:04;;;;;;;4.15;2.78;;;6.20;82.40;;;5.05;78.08;97252.38;5083246;28;20411;-78
2021/01/28 09:04:35;;;;;;;3.38;2.70;;;6.20;82.40;;;5.05;78.00;97243.72;5083583;28;20720;-77
2021/01/28 09:07:05;;;;;;;5.60;2.95;;;6.20;82.50;;;5.10;77.82;97232.56;5081204;28;20414;-77
2021/01/28 09:09:34;;;;;;;4.82;2.67;;;6.20;82.60;;;5.15;77.83;97237.94;5080572;28;20414;-77
2021/01/28 09:12:23;;;;;;;6.68;2.70;;;6.30;82.40;;;5.17;77.91;97243.78;5080790;28;20854;-76
2021/01/28 09:14:50;;;;;;;2.78;2.30;;;6.30;82.40;;;5.18;77.96;97234.91;5079911;28;20697;-77
2021/01/28 09:17:24;;;;;;;4.43;2.60;;;6.30;82.40;;;5.12;78.22;97220.81;5079091;28;20431;-77
2021/01/28 09:19:56;;;;;;;4.13;2.70;;;6.20;82.60;;;5.20;78.04;97217.91;5078392;28;20404;-77
2021/01/28 09:22:31;;;;;;;5.93;2.50;;;6.30;82.70;;;5.25;78.38;97212.00;5062744;28;20480;-77
2021/01/28 09:24:59;;;;;;;3.20;2.22;;;6.30;82.90;;;5.34;77.70;97216.69;5081733;28;20426;-77
2021/01/28 09:27:34;;;;;;;4.18;2.40;;;6.40;82.60;;;5.44;77.78;97209.09;5080611;28;20509;-77
2021/01/28 09:30:18;;;;;;;4.00;2.33;;;6.50;82.50;;;5.50;77.33;97209.22;5082104;28;20450;-77
2021/01/28 09:32:45;;;;;;;2.75;2.22;;;6.60;82.10;;;5.45;77.44;97194.97;5081760;28;20407;-77
2021/01/28 09:35:20;;;;;;;5.03;2.65;;;6.60;82.00;;;5.40;77.66;97192.22;5082372;28;20812;-77
2021/01/28 09:38:02;;;;;;;3.60;2.33;;;6.50;82.30;;;5.43;77.66;97194.38;5081241;28;20411;-76
2021/01/28 09:40:32;;;;;;;3.63;2.40;;;6.50;82.30;;;5.36;78.37;97185.00;5081145;28;20404;-77
2021/01/28 09:43:23;;;;;;;4.32;2.50;;;6.50;82.50;;;5.43;78.01;97175.19;5082500;28;20422;-78
2021/01/28 09:46:06;;;;;;;4.63;2.83;;;6.50;82.60;;;5.43;78.12;97168.13;5079744;28;20719;-78
2021/01/28 09:48:32;;;;;;;3.63;2.37;;;6.50;82.70;;;5.43;77.91;97165.50;5079382;28;20471;-78
2021/01/28 09:50:59;;;;;;;5.75;2.60;;;6.50;82.60;;;5.37;78.42;97158.53;5080414;28;20434;-77
2021/01/28 09:53:26;;;;;;;4.07;2.30;;;6.50;82.80;;;5.42;78.43;97160.47;5079763;28;20408;-76
2021/01/28 09:55:52;;;;;;;3.83;2.25;;;6.50;82.90;;;5.43;78.50;97169.94;5079772;28;20491;-76
2021/01/28 09:58:19;;;;;;;2.95;2.10;;;6.50;83.10;;;5.49;78.46;97176.16;5082233;28;20469;-76
2021/01/28 10:00:45;;;;;;;5.20;2.50;;;6.50;83.20;;;5.50;78.46;97186.41;5081110;28;20577;-77
2021/01/28 10:03:13;;;;;;;4.05;2.45;;;6.50;83.10;;;5.44;79.09;97174.97;5081479;28;20445;-77
2021/01/28 10:05:39;;;;;;;3.90;2.30;;;6.60;83.30;;;5.47;78.75;97176.38;5083712;28;20538;-77
2021/01/28 10:08:06;;;;;;;4.38;2.63;;;6.60;83.50;;;5.56;79.40;97169.00;5086929;28;20435;-77
2021/01/28 10:10:37;;;;;;;6.50;2.70;;;6.60;83.80;;;5.52;79.51;97166.00;5089203;28;20533;-77
2021/01/28 10:13:07;;;;;;;3.08;2.30;;;6.60;83.80;;;5.63;79.05;97160.00;5079165;28;20417;-77
2021/01/28 10:15:33;;;;;;;3.92;2.25;;;6.70;83.80;;;5.92;78.71;97171.50;5081732;28;20411;-78
2021/01/28 10:18:00;;;;;;;3.88;1.80;;;6.80;84.10;;;5.89;79.02;97156.16;5081543;28;20419;-78
2021/01/28 10:20:26;;;;;;;4.25;1.98;;;6.90;83.80;;;5.88;78.92;97162.44;5082960;28;20411;-78
2021/01/28 10:22:54;;;;;;;4.22;2.30;;;6.90;83.60;;;5.95;78.87;97168.38;5085817;28;20420;-78
2021/01/28 10:25:22;;;;;;;4.85;2.42;;;7.00;83.70;;;5.90;78.86;97157.78;5094395;28;20431;-77
2021/01/28 10:27:50;;;;;;;3.42;2.40;;;7.00;83.40;;;5.98;78.89;97165.31;5094959;28;20392;-78
2021/01/28 10:30:18;;;;;;;3.20;2.10;;;7.00;83.60;;;5.89;79.16;97164.03;5094558;28;20388;-78
2021/01/28 10:32:46;;;;;;;5.63;2.25;;;7.00;83.70;;;5.91;79.45;97154.13;5083026;28;20415;-77
2021/01/28 10:35:15;;;;;;;2.95;2.13;;;7.00;84.10;;;6.00;79.25;97165.09;5080458;28;20410;-77
2021/01/28 10:37:41;;;;;;;4.60;2.15;;;7.00;84.10;;;6.11;78.94;97156.41;5080068;28;20497;-77
2021/01/28 10:40:09;;;;;;;5.07;2.30;;;7.10;84.00;;;6.08;78.94;97157.69;5062428;28;20642;-77
2021/01/28 10:42:42;;;;;;;4.82;2.50;;;7.10;83.70;;;6.02;78.97;97158.56;5080145;28;20450;-77
2021/01/28 10:45:13;;;;;;;5.70;2.30;;;7.10;83.50;;;6.19;78.84;97149.00;5060468;28;20499;-76
2021/01/28 10:47:40;;;;;;;4.25;2.40;;;7.10;83.90;;;6.04;79.23;97142.59;5082846;28;20407;-76
2021/01/28 10:50:08;;;;;;;2.65;2.30;;;7.10;83.80;;;6.03;79.17;97133.09;5090128;28;20407;-78
2021/01/28 10:52:35;;;;;;;7.63;2.40;;;7.10;84.00;;;6.04;79.31;97130.25;5095299;28;20399;-77
2021/01/28 10:55:01;;;;;;;3.30;2.10;;;7.10;84.10;;;6.09;79.06;97125.09;5094665;28;20423;-77
2021/01/28 10:57:27;;;;;;;5.03;2.42;;;7.10;84.10;;;6.14;79.12;97121.81;5090381;28;20857;-77